sensor_id;sensor_type;location;lat;lon;timestamp;P1;durP1;ratioP1;P2;durP2;ratioP2
55210;SDS011;41082;52.822;6.666;2022-07-12T00:01:31;0.10;;;0.10;;
55210;SDS011;41082;52.822;6.666;2022-07-12T00:03:57;0.10;;;0.00;;
55210;SDS011;41082;52.822;6.666;2022-07-12T00:06:22;0.10;;;0.00;;
55210;SDS011;41082;52.822;6.666;2022-07-12T00:08:48;0.73;;;0.10;;
55210;SDS011;41082;52.822;6.666;2022-07-12T00:11:13;0.30;;;0.10;;
55210;SDS011;41082;52.822;6.666;2022-07-12T00:13:39;0.50;;;0.10;;
55210;SDS011;41082;52.822;6.666;2022-07-12T00:16:05;0.50;;;0.10;;
55210;SDS011;41082;52.822;6.666;2022-07-12T00:18:31;0.50;;;0.20;;
55210;SDS011;41082;52.822;6.666;2022-07-12T00:20:56;1.83;;;0.20;;
55210;SDS011;41082;52.822;6.666;2022-07-12T00:23:22;0.30;;;0.17;;
55210;SDS011;41082;52.822;6.666;2022-07-12T00:25:47;1.48;;;0.10;;
55210;SDS011;41082;52.822;6.666;2022-07-12T00:28:13;0.30;;;0.10;;
55210;SDS011;41082;52.822;6.666;2022-07-12T00:30:39;0.32;;;0.10;;
55210;SDS011;41082;52.822;6.666;2022-07-12T00:33:04;0.35;;;0.17;;
55210;SDS011;41082;52.822;6.666;2022-07-12T00:35:30;0.30;;;0.10;;
55210;SDS011;41082;52.822;6.666;2022-07-12T00:37:56;0.20;;;0.10;;
55210;SDS011;41082;52.822;6.666;2022-07-12T00:40:21;1.27;;;0.10;;
55210;SDS011;41082;52.822;6.666;2022-07-12T00:42:47;0.80;;;0.10;;
55210;SDS011;41082;52.822;6.666;2022-07-12T00:45:13;1.10;;;0.10;;
55210;SDS011;41082;52.822;6.666;2022-07-12T00:47:42;0.30;;;0.10;;
55210;SDS011;41082;52.822;6.666;2022-07-12T00:50:13;1.60;;;0.10;;
55210;SDS011;41082;52.822;6.666;2022-07-12T00:52:41;1.15;;;0.15;;
55210;SDS011;41082;52.822;6.666;2022-07-12T00:55:08;0.28;;;0.10;;
55210;SDS011;41082;52.822;6.666;2022-07-12T00:57:35;0.30;;;0.10;;
55210;SDS011;41082;52.822;6.666;2022-07-12T01:00:02;0.05;;;0.00;;
55210;SDS011;41082;52.822;6.666;2022-07-12T01:02:31;0.00;;;0.00;;
55210;SDS011;41082;52.822;6.666;2022-07-12T01:04:58;0.10;;;0.00;;
55210;SDS011;41082;52.822;6.666;2022-07-12T01:07:25;0.10;;;0.00;;
55210;SDS011;41082;52.822;6.666;2022-07-12T01:09:51;0.22;;;0.10;;
55210;SDS011;41082;52.822;6.666;2022-07-12T01:12:19;2.55;;;0.47;;
55210;SDS011;41082;52.822;6.666;2022-07-12T01:14:46;2.17;;;0.10;;
55210;SDS011;41082;52.822;6.666;2022-07-12T01:17:13;1.77;;;0.47;;
55210;SDS011;41082;52.822;6.666;2022-07-12T01:19:39;3.40;;;0.20;;
55210;SDS011;41082;52.822;6.666;2022-07-12T01:22:06;0.90;;;0.50;;
55210;SDS011;41082;52.822;6.666;2022-07-12T01:24:35;0.40;;;0.10;;
55210;SDS011;41082;52.822;6.666;2022-07-12T01:27:04;0.43;;;0.20;;
55210;SDS011;41082;52.822;6.666;2022-07-12T01:29:30;0.30;;;0.20;;
55210;SDS011;41082;52.822;6.666;2022-07-12T01:31:56;0.28;;;0.10;;
55210;SDS011;41082;52.822;6.666;2022-07-12T01:34:44;5.90;;;0.30;;
55210;SDS011;41082;52.822;6.666;2022-07-12T01:37:12;1.27;;;0.85;;
55210;SDS011;41082;52.822;6.666;2022-07-12T01:39:39;0.25;;;0.10;;
55210;SDS011;41082;52.822;6.666;2022-07-12T01:42:05;0.60;;;0.20;;
55210;SDS011;41082;52.822;6.666;2022-07-12T01:44:30;0.30;;;0.10;;
55210;SDS011;41082;52.822;6.666;2022-07-12T01:46:57;1.50;;;0.20;;
55210;SDS011;41082;52.822;6.666;2022-07-12T01:49:23;1.55;;;0.10;;
55210;SDS011;41082;52.822;6.666;2022-07-12T01:51:49;1.20;;;0.20;;
55210;SDS011;41082;52.822;6.666;2022-07-12T01:54:14;0.98;;;0.10;;
55210;SDS011;41082;52.822;6.666;2022-07-12T01:56:40;0.10;;;0.00;;
55210;SDS011;41082;52.822;6.666;2022-07-12T01:59:07;0.90;;;0.00;;
55210;SDS011;41082;52.822;6.666;2022-07-12T02:01:33;0.20;;;0.00;;
55210;SDS011;41082;52.822;6.666;2022-07-12T02:04:02;0.10;;;0.00;;
55210;SDS011;41082;52.822;6.666;2022-07-12T02:06:29;1.27;;;0.10;;
55210;SDS011;41082;52.822;6.666;2022-07-12T02:08:55;0.65;;;0.00;;
55210;SDS011;41082;52.822;6.666;2022-07-12T02:11:21;0.73;;;0.10;;
55210;SDS011;41082;52.822;6.666;2022-07-12T02:13:47;0.15;;;0.00;;
55210;SDS011;41082;52.822;6.666;2022-07-12T02:16:12;3.92;;;0.30;;
55210;SDS011;41082;52.822;6.666;2022-07-12T02:18:38;0.30;;;0.20;;
55210;SDS011;41082;52.822;6.666;2022-07-12T02:21:04;0.85;;;0.17;;
55210;SDS011;41082;52.822;6.666;2022-07-12T02:23:29;1.65;;;0.10;;
55210;SDS011;41082;52.822;6.666;2022-07-12T02:25:55;0.50;;;0.10;;
55210;SDS011;41082;52.822;6.666;2022-07-12T02:28:20;0.20;;;0.10;;
55210;SDS011;41082;52.822;6.666;2022-07-12T02:30:46;0.20;;;0.10;;
55210;SDS011;41082;52.822;6.666;2022-07-12T02:33:12;0.30;;;0.10;;
55210;SDS011;41082;52.822;6.666;2022-07-12T02:35:41;0.98;;;0.10;;
55210;SDS011;41082;52.822;6.666;2022-07-12T02:38:07;1.42;;;0.60;;
55210;SDS011;41082;52.822;6.666;2022-07-12T02:40:33;0.80;;;0.30;;
55210;SDS011;41082;52.822;6.666;2022-07-12T02:43:17;1.55;;;0.30;;
55210;SDS011;41082;52.822;6.666;2022-07-12T02:45:43;0.60;;;0.30;;
55210;SDS011;41082;52.822;6.666;2022-07-12T02:48:08;1.88;;;0.20;;
55210;SDS011;41082;52.822;6.666;2022-07-12T02:50:37;0.45;;;0.10;;
55210;SDS011;41082;52.822;6.666;2022-07-12T02:53:04;0.73;;;0.10;;
55210;SDS011;41082;52.822;6.666;2022-07-12T02:55:29;2.85;;;0.10;;
55210;SDS011;41082;52.822;6.666;2022-07-12T02:57:55;0.40;;;0.15;;
55210;SDS011;41082;52.822;6.666;2022-07-12T03:00:21;0.13;;;0.10;;
55210;SDS011;41082;52.822;6.666;2022-07-12T03:02:47;0.43;;;0.20;;
55210;SDS011;41082;52.822;6.666;2022-07-12T03:05:12;1.48;;;0.10;;
55210;SDS011;41082;52.822;6.666;2022-07-12T03:07:38;0.45;;;0.10;;
55210;SDS011;41082;52.822;6.666;2022-07-12T03:10:04;1.35;;;0.08;;
55210;SDS011;41082;52.822;6.666;2022-07-12T03:12:30;0.10;;;0.00;;
55210;SDS011;41082;52.822;6.666;2022-07-12T03:14:55;0.10;;;0.00;;
55210;SDS011;41082;52.822;6.666;2022-07-12T03:17:21;0.20;;;0.10;;
55210;SDS011;41082;52.822;6.666;2022-07-12T03:19:47;0.60;;;0.22;;
55210;SDS011;41082;52.822;6.666;2022-07-12T03:22:13;0.95;;;0.00;;
55210;SDS011;41082;52.822;6.666;2022-07-12T03:24:38;1.77;;;0.00;;
55210;SDS011;41082;52.822;6.666;2022-07-12T03:27:04;0.93;;;0.00;;
55210;SDS011;41082;52.822;6.666;2022-07-12T03:29:30;1.75;;;0.00;;
55210;SDS011;41082;52.822;6.666;2022-07-12T03:31:56;0.65;;;0.00;;
55210;SDS011;41082;52.822;6.666;2022-07-12T03:34:22;2.22;;;0.00;;
55210;SDS011;41082;52.822;6.666;2022-07-12T03:36:47;0.57;;;0.10;;
55210;SDS011;41082;52.822;6.666;2022-07-12T03:39:13;0.10;;;0.00;;
55210;SDS011;41082;52.822;6.666;2022-07-12T03:41:38;1.48;;;0.10;;
55210;SDS011;41082;52.822;6.666;2022-07-12T03:44:04;0.35;;;0.10;;
55210;SDS011;41082;52.822;6.666;2022-07-12T03:46:31;1.40;;;0.10;;
55210;SDS011;41082;52.822;6.666;2022-07-12T03:48:58;0.57;;;0.20;;
55210;SDS011;41082;52.822;6.666;2022-07-12T03:51:24;0.47;;;0.10;;
55210;SDS011;41082;52.822;6.666;2022-07-12T03:53:50;0.60;;;0.13;;
55210;SDS011;41082;52.822;6.666;2022-07-12T03:56:16;4.07;;;0.20;;
55210;SDS011;41082;52.822;6.666;2022-07-12T03:59:00;1.17;;;0.10;;
55210;SDS011;41082;52.822;6.666;2022-07-12T04:01:26;0.35;;;0.10;;
55210;SDS011;41082;52.822;6.666;2022-07-12T04:03:52;1.15;;;0.47;;
55210;SDS011;41082;52.822;6.666;2022-07-12T04:06:17;0.10;;;0.05;;
55210;SDS011;41082;52.822;6.666;2022-07-12T04:08:43;0.40;;;0.13;;
55210;SDS011;41082;52.822;6.666;2022-07-12T04:11:09;1.60;;;0.10;;
55210;SDS011;41082;52.822;6.666;2022-07-12T04:13:34;0.47;;;0.10;;
55210;SDS011;41082;52.822;6.666;2022-07-12T04:16:00;0.10;;;0.00;;
55210;SDS011;41082;52.822;6.666;2022-07-12T04:18:25;0.50;;;0.10;;
55210;SDS011;41082;52.822;6.666;2022-07-12T04:20:51;2.08;;;0.85;;
55210;SDS011;41082;52.822;6.666;2022-07-12T04:23:16;0.85;;;0.20;;
55210;SDS011;41082;52.822;6.666;2022-07-12T04:25:42;1.15;;;0.20;;
55210;SDS011;41082;52.822;6.666;2022-07-12T04:28:07;1.42;;;0.20;;
55210;SDS011;41082;52.822;6.666;2022-07-12T04:30:33;1.05;;;0.20;;
55210;SDS011;41082;52.822;6.666;2022-07-12T04:32:59;0.90;;;0.30;;
55210;SDS011;41082;52.822;6.666;2022-07-12T04:35:24;1.42;;;0.30;;
55210;SDS011;41082;52.822;6.666;2022-07-12T04:37:50;0.60;;;0.40;;
55210;SDS011;41082;52.822;6.666;2022-07-12T04:40:15;1.40;;;0.47;;
55210;SDS011;41082;52.822;6.666;2022-07-12T04:42:41;1.92;;;0.40;;
55210;SDS011;41082;52.822;6.666;2022-07-12T04:45:07;2.05;;;0.30;;
55210;SDS011;41082;52.822;6.666;2022-07-12T04:47:35;3.92;;;0.40;;
55210;SDS011;41082;52.822;6.666;2022-07-12T04:50:08;0.98;;;0.40;;
55210;SDS011;41082;52.822;6.666;2022-07-12T04:52:36;1.77;;;0.30;;
55210;SDS011;41082;52.822;6.666;2022-07-12T04:55:02;1.58;;;0.35;;
55210;SDS011;41082;52.822;6.666;2022-07-12T04:57:29;1.52;;;0.30;;
55210;SDS011;41082;52.822;6.666;2022-07-12T04:59:55;0.57;;;0.30;;
55210;SDS011;41082;52.822;6.666;2022-07-12T05:02:20;2.88;;;0.30;;
55210;SDS011;41082;52.822;6.666;2022-07-12T05:04:46;1.00;;;0.30;;
55210;SDS011;41082;52.822;6.666;2022-07-12T05:07:11;0.50;;;0.30;;
55210;SDS011;41082;52.822;6.666;2022-07-12T05:09:37;0.60;;;0.30;;
55210;SDS011;41082;52.822;6.666;2022-07-12T05:12:02;1.25;;;0.40;;
55210;SDS011;41082;52.822;6.666;2022-07-12T05:14:28;0.50;;;0.30;;
55210;SDS011;41082;52.822;6.666;2022-07-12T05:16:54;0.40;;;0.28;;
55210;SDS011;41082;52.822;6.666;2022-07-12T05:19:20;3.33;;;0.40;;
55210;SDS011;41082;52.822;6.666;2022-07-12T05:21:46;0.90;;;0.38;;
55210;SDS011;41082;52.822;6.666;2022-07-12T05:24:11;1.10;;;0.90;;
55210;SDS011;41082;52.822;6.666;2022-07-12T05:26:37;3.28;;;1.60;;
55210;SDS011;41082;52.822;6.666;2022-07-12T05:29:03;1.23;;;0.80;;
55210;SDS011;41082;52.822;6.666;2022-07-12T05:31:28;3.13;;;1.50;;
55210;SDS011;41082;52.822;6.666;2022-07-12T05:33:54;2.63;;;2.10;;
55210;SDS011;41082;52.822;6.666;2022-07-12T05:36:20;3.58;;;2.47;;
55210;SDS011;41082;52.822;6.666;2022-07-12T05:38:45;3.35;;;2.45;;
55210;SDS011;41082;52.822;6.666;2022-07-12T05:41:11;4.20;;;3.38;;
55210;SDS011;41082;52.822;6.666;2022-07-12T05:43:37;6.53;;;4.85;;
55210;SDS011;41082;52.822;6.666;2022-07-12T05:46:03;6.32;;;5.05;;
55210;SDS011;41082;52.822;6.666;2022-07-12T05:48:30;5.55;;;4.97;;
55210;SDS011;41082;52.822;6.666;2022-07-12T05:50:55;4.45;;;4.05;;
55210;SDS011;41082;52.822;6.666;2022-07-12T05:53:41;7.80;;;5.78;;
55210;SDS011;41082;52.822;6.666;2022-07-12T05:56:07;5.65;;;4.85;;
55210;SDS011;41082;52.822;6.666;2022-07-12T05:58:32;5.20;;;4.70;;
55210;SDS011;41082;52.822;6.666;2022-07-12T06:00:58;5.43;;;4.90;;
55210;SDS011;41082;52.822;6.666;2022-07-12T06:03:24;6.03;;;4.95;;
55210;SDS011;41082;52.822;6.666;2022-07-12T06:05:49;4.93;;;4.43;;
55210;SDS011;41082;52.822;6.666;2022-07-12T06:08:15;4.65;;;4.25;;
55210;SDS011;41082;52.822;6.666;2022-07-12T06:10:41;4.85;;;3.83;;
55210;SDS011;41082;52.822;6.666;2022-07-12T06:13:07;3.65;;;3.35;;
55210;SDS011;41082;52.822;6.666;2022-07-12T06:15:34;4.20;;;3.90;;
55210;SDS011;41082;52.822;6.666;2022-07-12T06:18:00;4.60;;;4.05;;
55210;SDS011;41082;52.822;6.666;2022-07-12T06:20:27;4.88;;;3.60;;
55210;SDS011;41082;52.822;6.666;2022-07-12T06:22:53;4.30;;;3.90;;
55210;SDS011;41082;52.822;6.666;2022-07-12T06:25:20;5.15;;;3.90;;
55210;SDS011;41082;52.822;6.666;2022-07-12T06:27:45;4.50;;;3.50;;
55210;SDS011;41082;52.822;6.666;2022-07-12T06:30:13;3.88;;;3.38;;
55210;SDS011;41082;52.822;6.666;2022-07-12T06:32:40;3.80;;;3.50;;
55210;SDS011;41082;52.822;6.666;2022-07-12T06:35:06;3.55;;;3.25;;
55210;SDS011;41082;52.822;6.666;2022-07-12T06:37:31;5.50;;;3.47;;
55210;SDS011;41082;52.822;6.666;2022-07-12T06:39:57;8.05;;;4.32;;
55210;SDS011;41082;52.822;6.666;2022-07-12T06:42:23;3.47;;;3.17;;
55210;SDS011;41082;52.822;6.666;2022-07-12T06:44:48;4.00;;;3.58;;
55210;SDS011;41082;52.822;6.666;2022-07-12T06:47:14;3.28;;;2.97;;
55210;SDS011;41082;52.822;6.666;2022-07-12T06:49:39;3.47;;;2.70;;
55210;SDS011;41082;52.822;6.666;2022-07-12T06:52:05;4.30;;;3.50;;
55210;SDS011;41082;52.822;6.666;2022-07-12T06:54:31;4.97;;;3.63;;
55210;SDS011;41082;52.822;6.666;2022-07-12T06:56:56;3.85;;;3.55;;
55210;SDS011;41082;52.822;6.666;2022-07-12T06:59:22;4.15;;;3.03;;
55210;SDS011;41082;52.822;6.666;2022-07-12T07:01:48;3.00;;;2.80;;
55210;SDS011;41082;52.822;6.666;2022-07-12T07:04:14;3.47;;;3.20;;
55210;SDS011;41082;52.822;6.666;2022-07-12T07:06:39;3.80;;;3.50;;
55210;SDS011;41082;52.822;6.666;2022-07-12T07:09:05;3.92;;;3.63;;
55210;SDS011;41082;52.822;6.666;2022-07-12T07:11:32;3.08;;;2.88;;
55210;SDS011;41082;52.822;6.666;2022-07-12T07:13:59;3.13;;;2.38;;
55210;SDS011;41082;52.822;6.666;2022-07-12T07:16:24;3.80;;;2.88;;
55210;SDS011;41082;52.822;6.666;2022-07-12T07:18:50;4.28;;;3.08;;
55210;SDS011;41082;52.822;6.666;2022-07-12T07:21:15;3.60;;;3.30;;
55210;SDS011;41082;52.822;6.666;2022-07-12T07:23:41;3.50;;;3.20;;
55210;SDS011;41082;52.822;6.666;2022-07-12T07:26:06;3.53;;;2.65;;
55210;SDS011;41082;52.822;6.666;2022-07-12T07:28:32;2.92;;;2.72;;
55210;SDS011;41082;52.822;6.666;2022-07-12T07:31:18;3.20;;;2.90;;
55210;SDS011;41082;52.822;6.666;2022-07-12T07:33:43;4.32;;;2.60;;
55210;SDS011;41082;52.822;6.666;2022-07-12T07:36:09;3.30;;;2.65;;
55210;SDS011;41082;52.822;6.666;2022-07-12T07:38:35;2.80;;;2.50;;
55210;SDS011;41082;52.822;6.666;2022-07-12T07:41:00;2.65;;;2.45;;
55210;SDS011;41082;52.822;6.666;2022-07-12T07:43:26;3.80;;;2.53;;
55210;SDS011;41082;52.822;6.666;2022-07-12T07:45:51;2.60;;;2.33;;
55210;SDS011;41082;52.822;6.666;2022-07-12T07:48:18;2.83;;;2.63;;
55210;SDS011;41082;52.822;6.666;2022-07-12T07:50:43;5.43;;;2.33;;
55210;SDS011;41082;52.822;6.666;2022-07-12T07:53:09;2.97;;;2.28;;
55210;SDS011;41082;52.822;6.666;2022-07-12T07:55:34;2.33;;;2.13;;
55210;SDS011;41082;52.822;6.666;2022-07-12T07:58:00;2.15;;;1.95;;
55210;SDS011;41082;52.822;6.666;2022-07-12T08:00:26;2.92;;;2.17;;
55210;SDS011;41082;52.822;6.666;2022-07-12T08:02:53;4.45;;;1.88;;
55210;SDS011;41082;52.822;6.666;2022-07-12T08:05:21;2.08;;;1.88;;
55210;SDS011;41082;52.822;6.666;2022-07-12T08:07:47;2.10;;;1.92;;
55210;SDS011;41082;52.822;6.666;2022-07-12T08:10:12;2.03;;;1.83;;
55210;SDS011;41082;52.822;6.666;2022-07-12T08:12:38;1.52;;;1.33;;
55210;SDS011;41082;52.822;6.666;2022-07-12T08:15:04;2.38;;;1.60;;
55210;SDS011;41082;52.822;6.666;2022-07-12T08:17:31;3.75;;;1.80;;
55210;SDS011;41082;52.822;6.666;2022-07-12T08:19:56;2.28;;;1.77;;
55210;SDS011;41082;52.822;6.666;2022-07-12T08:22:22;1.70;;;1.40;;
55210;SDS011;41082;52.822;6.666;2022-07-12T08:24:48;3.03;;;1.50;;
55210;SDS011;41082;52.822;6.666;2022-07-12T08:27:14;1.52;;;1.30;;
55210;SDS011;41082;52.822;6.666;2022-07-12T08:29:40;1.92;;;1.40;;
55210;SDS011;41082;52.822;6.666;2022-07-12T08:32:06;2.33;;;0.77;;
55210;SDS011;41082;52.822;6.666;2022-07-12T08:34:32;1.60;;;1.30;;
55210;SDS011;41082;52.822;6.666;2022-07-12T08:36:58;1.42;;;0.85;;
55210;SDS011;41082;52.822;6.666;2022-07-12T08:39:24;2.65;;;1.85;;
55210;SDS011;41082;52.822;6.666;2022-07-12T08:41:49;1.83;;;1.73;;
55210;SDS011;41082;52.822;6.666;2022-07-12T08:44:15;3.33;;;1.52;;
55210;SDS011;41082;52.822;6.666;2022-07-12T08:46:41;3.15;;;1.80;;
55210;SDS011;41082;52.822;6.666;2022-07-12T08:49:06;1.35;;;1.10;;
55210;SDS011;41082;52.822;6.666;2022-07-12T08:51:35;2.40;;;1.70;;
55210;SDS011;41082;52.822;6.666;2022-07-12T08:54:10;2.17;;;1.98;;
55210;SDS011;41082;52.822;6.666;2022-07-12T08:56:41;3.53;;;2.30;;
55210;SDS011;41082;52.822;6.666;2022-07-12T08:59:09;3.55;;;2.15;;
55210;SDS011;41082;52.822;6.666;2022-07-12T09:01:38;3.03;;;2.00;;
55210;SDS011;41082;52.822;6.666;2022-07-12T09:04:22;2.45;;;2.20;;
55210;SDS011;41082;52.822;6.666;2022-07-12T09:06:49;5.13;;;2.10;;
55210;SDS011;41082;52.822;6.666;2022-07-12T09:09:25;2.63;;;2.25;;
55210;SDS011;41082;52.822;6.666;2022-07-12T09:11:52;4.78;;;1.50;;
55210;SDS011;41082;52.822;6.666;2022-07-12T09:14:19;2.92;;;2.50;;
55210;SDS011;41082;52.822;6.666;2022-07-12T09:16:57;6.43;;;2.20;;
55210;SDS011;41082;52.822;6.666;2022-07-12T09:21:52;2.45;;;1.70;;
55210;SDS011;41082;52.822;6.666;2022-07-12T09:24:19;3.00;;;2.70;;
55210;SDS011;41082;52.822;6.666;2022-07-12T09:26:48;2.55;;;2.08;;
55210;SDS011;41082;52.822;6.666;2022-07-12T09:29:17;1.92;;;1.58;;
55210;SDS011;41082;52.822;6.666;2022-07-12T09:31:44;1.85;;;1.70;;
55210;SDS011;41082;52.822;6.666;2022-07-12T09:34:31;3.42;;;1.80;;
55210;SDS011;41082;52.822;6.666;2022-07-12T09:37:16;2.72;;;1.15;;
55210;SDS011;41082;52.822;6.666;2022-07-12T09:39:42;1.13;;;0.80;;
55210;SDS011;41082;52.822;6.666;2022-07-12T09:42:08;1.10;;;0.75;;
55210;SDS011;41082;52.822;6.666;2022-07-12T09:44:38;1.63;;;1.10;;
55210;SDS011;41082;52.822;6.666;2022-07-12T09:47:09;3.42;;;0.75;;
55210;SDS011;41082;52.822;6.666;2022-07-12T09:49:40;2.60;;;0.77;;
55210;SDS011;41082;52.822;6.666;2022-07-12T09:52:19;2.67;;;0.60;;
55210;SDS011;41082;52.822;6.666;2022-07-12T09:54:50;0.95;;;0.60;;
55210;SDS011;41082;52.822;6.666;2022-07-12T09:59:56;5.10;;;0.40;;
55210;SDS011;41082;52.822;6.666;2022-07-12T10:02:23;1.58;;;0.60;;
55210;SDS011;41082;52.822;6.666;2022-07-12T10:04:49;1.90;;;0.75;;
55210;SDS011;41082;52.822;6.666;2022-07-12T10:07:15;2.83;;;0.70;;
55210;SDS011;41082;52.822;6.666;2022-07-12T10:09:41;1.23;;;0.30;;
55210;SDS011;41082;52.822;6.666;2022-07-12T10:12:09;2.72;;;0.35;;
55210;SDS011;41082;52.822;6.666;2022-07-12T10:14:36;0.82;;;0.30;;
55210;SDS011;41082;52.822;6.666;2022-07-12T10:17:03;1.38;;;0.60;;
55210;SDS011;41082;52.822;6.666;2022-07-12T10:19:34;0.73;;;0.28;;
55210;SDS011;41082;52.822;6.666;2022-07-12T10:22:01;0.85;;;0.40;;
55210;SDS011;41082;52.822;6.666;2022-07-12T10:35:15;1.83;;;0.50;;
55210;SDS011;41082;52.822;6.666;2022-07-12T10:38:14;1.40;;;0.25;;
55210;SDS011;41082;52.822;6.666;2022-07-12T10:40:37;1.02;;;0.30;;
55210;SDS011;41082;52.822;6.666;2022-07-12T10:45:31;1.10;;;0.60;;
55210;SDS011;41082;52.822;6.666;2022-07-12T10:47:59;1.85;;;0.40;;
55210;SDS011;41082;52.822;6.666;2022-07-12T10:58:40;0.82;;;0.35;;
55210;SDS011;41082;52.822;6.666;2022-07-12T11:01:12;0.68;;;0.22;;
55210;SDS011;41082;52.822;6.666;2022-07-12T11:06:12;1.50;;;0.40;;
55210;SDS011;41082;52.822;6.666;2022-07-12T11:08:46;0.68;;;0.40;;
55210;SDS011;41082;52.822;6.666;2022-07-12T11:11:15;0.70;;;0.30;;
55210;SDS011;41082;52.822;6.666;2022-07-12T11:13:40;2.88;;;0.30;;
55210;SDS011;41082;52.822;6.666;2022-07-12T11:16:06;1.15;;;0.25;;
55210;SDS011;41082;52.822;6.666;2022-07-12T11:18:33;3.60;;;0.30;;
55210;SDS011;41082;52.822;6.666;2022-07-12T11:21:00;0.43;;;0.20;;
55210;SDS011;41082;52.822;6.666;2022-07-12T11:23:26;2.63;;;0.20;;
55210;SDS011;41082;52.822;6.666;2022-07-12T11:25:56;0.93;;;0.20;;
55210;SDS011;41082;52.822;6.666;2022-07-12T11:28:24;0.65;;;0.20;;
55210;SDS011;41082;52.822;6.666;2022-07-12T11:30:53;1.02;;;0.30;;
55210;SDS011;41082;52.822;6.666;2022-07-12T11:33:25;3.83;;;0.20;;
55210;SDS011;41082;52.822;6.666;2022-07-12T11:35:51;2.00;;;0.30;;
55210;SDS011;41082;52.822;6.666;2022-07-12T11:38:26;1.25;;;0.20;;
55210;SDS011;41082;52.822;6.666;2022-07-12T11:40:56;0.88;;;0.10;;
55210;SDS011;41082;52.822;6.666;2022-07-12T11:43:23;0.85;;;0.20;;
55210;SDS011;41082;52.822;6.666;2022-07-12T11:45:50;1.95;;;0.20;;
55210;SDS011;41082;52.822;6.666;2022-07-12T11:48:16;1.27;;;0.20;;
55210;SDS011;41082;52.822;6.666;2022-07-12T11:50:42;1.23;;;0.17;;
55210;SDS011;41082;52.822;6.666;2022-07-12T11:53:15;2.38;;;0.20;;
55210;SDS011;41082;52.822;6.666;2022-07-12T11:55:46;2.30;;;0.20;;
55210;SDS011;41082;52.822;6.666;2022-07-12T11:58:14;0.85;;;0.10;;
55210;SDS011;41082;52.822;6.666;2022-07-12T12:00:40;1.58;;;0.10;;
55210;SDS011;41082;52.822;6.666;2022-07-12T12:03:07;1.65;;;0.20;;
55210;SDS011;41082;52.822;6.666;2022-07-12T12:05:33;3.15;;;0.50;;
55210;SDS011;41082;52.822;6.666;2022-07-12T12:08:00;2.25;;;0.10;;
55210;SDS011;41082;52.822;6.666;2022-07-12T12:10:26;1.60;;;0.10;;
55210;SDS011;41082;52.822;6.666;2022-07-12T12:12:53;0.70;;;0.10;;
55210;SDS011;41082;52.822;6.666;2022-07-12T12:15:22;1.13;;;0.03;;
55210;SDS011;41082;52.822;6.666;2022-07-12T12:17:56;0.32;;;0.10;;
55210;SDS011;41082;52.822;6.666;2022-07-12T12:20:30;0.38;;;0.10;;
55210;SDS011;41082;52.822;6.666;2022-07-12T12:23:00;0.10;;;0.10;;
55210;SDS011;41082;52.822;6.666;2022-07-12T12:25:28;1.27;;;0.10;;
55210;SDS011;41082;52.822;6.666;2022-07-12T12:27:56;0.28;;;0.10;;
55210;SDS011;41082;52.822;6.666;2022-07-12T12:30:23;0.28;;;0.20;;
55210;SDS011;41082;52.822;6.666;2022-07-12T12:32:56;0.43;;;0.10;;
55210;SDS011;41082;52.822;6.666;2022-07-12T12:35:29;1.85;;;0.10;;
55210;SDS011;41082;52.822;6.666;2022-07-12T12:38:03;2.05;;;0.10;;
55210;SDS011;41082;52.822;6.666;2022-07-12T12:40:36;0.32;;;0.10;;
55210;SDS011;41082;52.822;6.666;2022-07-12T12:43:06;0.68;;;0.10;;
55210;SDS011;41082;52.822;6.666;2022-07-12T12:45:36;0.68;;;0.10;;
55210;SDS011;41082;52.822;6.666;2022-07-12T12:48:17;0.75;;;0.10;;
55210;SDS011;41082;52.822;6.666;2022-07-12T12:50:48;1.85;;;0.20;;
55210;SDS011;41082;52.822;6.666;2022-07-12T12:53:16;1.95;;;0.13;;
55210;SDS011;41082;52.822;6.666;2022-07-12T12:55:42;0.50;;;0.10;;
55210;SDS011;41082;52.822;6.666;2022-07-12T12:58:09;1.42;;;0.10;;
55210;SDS011;41082;52.822;6.666;2022-07-12T13:00:37;3.03;;;0.10;;
55210;SDS011;41082;52.822;6.666;2022-07-12T13:03:07;1.20;;;0.10;;
55210;SDS011;41082;52.822;6.666;2022-07-12T13:05:34;0.93;;;0.20;;
55210;SDS011;41082;52.822;6.666;2022-07-12T13:08:00;0.45;;;0.10;;
55210;SDS011;41082;52.822;6.666;2022-07-12T13:10:27;1.05;;;0.10;;
55210;SDS011;41082;52.822;6.666;2022-07-12T13:12:53;0.88;;;0.20;;
55210;SDS011;41082;52.822;6.666;2022-07-12T13:15:19;1.38;;;0.10;;
55210;SDS011;41082;52.822;6.666;2022-07-12T13:17:44;2.20;;;0.10;;
55210;SDS011;41082;52.822;6.666;2022-07-12T13:20:10;0.63;;;0.10;;
55210;SDS011;41082;52.822;6.666;2022-07-12T13:22:38;2.05;;;0.10;;
55210;SDS011;41082;52.822;6.666;2022-07-12T13:25:08;0.22;;;0.10;;
55210;SDS011;41082;52.822;6.666;2022-07-12T13:27:38;1.03;;;0.07;;
55210;SDS011;41082;52.822;6.666;2022-07-12T13:30:04;0.10;;;0.00;;
55210;SDS011;41082;52.822;6.666;2022-07-12T13:32:32;0.57;;;0.00;;
55210;SDS011;41082;52.822;6.666;2022-07-12T13:34:58;2.95;;;0.10;;
55210;SDS011;41082;52.822;6.666;2022-07-12T13:37:24;1.25;;;0.00;;
55210;SDS011;41082;52.822;6.666;2022-07-12T13:39:50;2.58;;;0.10;;
55210;SDS011;41082;52.822;6.666;2022-07-12T13:42:34;0.65;;;0.10;;
55210;SDS011;41082;52.822;6.666;2022-07-12T13:45:00;0.40;;;0.00;;
55210;SDS011;41082;52.822;6.666;2022-07-12T13:47:26;0.10;;;0.00;;
55210;SDS011;41082;52.822;6.666;2022-07-12T13:49:51;2.55;;;0.10;;
55210;SDS011;41082;52.822;6.666;2022-07-12T13:52:17;0.40;;;0.00;;
55210;SDS011;41082;52.822;6.666;2022-07-12T13:54:43;0.63;;;0.10;;
55210;SDS011;41082;52.822;6.666;2022-07-12T13:57:09;1.88;;;0.10;;
55210;SDS011;41082;52.822;6.666;2022-07-12T13:59:37;5.38;;;0.30;;
55210;SDS011;41082;52.822;6.666;2022-07-12T14:02:03;0.77;;;0.10;;
55210;SDS011;41082;52.822;6.666;2022-07-12T14:04:29;0.80;;;0.10;;
55210;SDS011;41082;52.822;6.666;2022-07-12T14:06:55;1.65;;;0.10;;
55210;SDS011;41082;52.822;6.666;2022-07-12T14:09:21;0.95;;;0.10;;
55210;SDS011;41082;52.822;6.666;2022-07-12T14:11:47;1.45;;;0.20;;
55210;SDS011;41082;52.822;6.666;2022-07-12T14:14:13;1.08;;;0.10;;
55210;SDS011;41082;52.822;6.666;2022-07-12T14:16:39;0.68;;;0.10;;
55210;SDS011;41082;52.822;6.666;2022-07-12T14:19:05;2.55;;;0.10;;
55210;SDS011;41082;52.822;6.666;2022-07-12T14:21:30;0.65;;;0.10;;
55210;SDS011;41082;52.822;6.666;2022-07-12T14:23:56;0.38;;;0.10;;
55210;SDS011;41082;52.822;6.666;2022-07-12T14:26:26;3.40;;;0.10;;
55210;SDS011;41082;52.822;6.666;2022-07-12T14:28:52;0.93;;;0.20;;
55210;SDS011;41082;52.822;6.666;2022-07-12T14:31:19;1.17;;;0.20;;
55210;SDS011;41082;52.822;6.666;2022-07-12T14:33:44;0.50;;;0.10;;
55210;SDS011;41082;52.822;6.666;2022-07-12T14:36:10;1.65;;;0.10;;
55210;SDS011;41082;52.822;6.666;2022-07-12T14:38:36;1.17;;;0.20;;
55210;SDS011;41082;52.822;6.666;2022-07-12T14:41:02;0.50;;;0.20;;
55210;SDS011;41082;52.822;6.666;2022-07-12T14:43:27;0.20;;;0.00;;
55210;SDS011;41082;52.822;6.666;2022-07-12T14:45:53;0.75;;;0.10;;
55210;SDS011;41082;52.822;6.666;2022-07-12T14:48:18;2.53;;;0.10;;
55210;SDS011;41082;52.822;6.666;2022-07-12T14:50:44;0.40;;;0.10;;
55210;SDS011;41082;52.822;6.666;2022-07-12T14:53:10;0.10;;;0.10;;
55210;SDS011;41082;52.822;6.666;2022-07-12T14:55:36;1.33;;;0.10;;
55210;SDS011;41082;52.822;6.666;2022-07-12T14:58:01;1.63;;;0.20;;
55210;SDS011;41082;52.822;6.666;2022-07-12T15:00:28;0.70;;;0.10;;
55210;SDS011;41082;52.822;6.666;2022-07-12T15:02:53;0.73;;;0.20;;
55210;SDS011;41082;52.822;6.666;2022-07-12T15:05:25;1.70;;;0.10;;
55210;SDS011;41082;52.822;6.666;2022-07-12T15:07:51;0.32;;;0.10;;
55210;SDS011;41082;52.822;6.666;2022-07-12T15:10:17;1.15;;;0.20;;
55210;SDS011;41082;52.822;6.666;2022-07-12T15:12:42;0.77;;;0.20;;
55210;SDS011;41082;52.822;6.666;2022-07-12T15:15:08;0.63;;;0.20;;
55210;SDS011;41082;52.822;6.666;2022-07-12T15:17:34;1.33;;;0.20;;